Data for 01/27/2005

Time Sea-Level Adjusted Pressure Absolute Pressure Temperature Relative Humidity Dew Point   
(mb) (inHg) (mb) (inHg) (C) (F) (%) (C) (F)
00:05 1013 29.91 842 24.86 1.7 35 66 -4 24.8
00:10 1013 29.91 842 24.86 1.3 34.3 66 -4.3 24.3
00:15 1013 29.91 842 24.86 1.9 35.5 62 -4.5 23.9
00:20 1013 29.91 842 24.86 2.6 36.7 61 -4.1 24.6
00:25 1013 29.91 842 24.86 2.8 37.1 62 -3.8 25.1
00:30 1013 29.91 842 24.86 2.9 37.3 62 -3.7 25.3
00:35 1013 29.91 842 24.86 2.7 36.9 62 -3.8 25.2
00:40 1013 29.91 842 24.86 2.3 36.1 64 -3.8 25.1
00:45 1013 29.91 842 24.86 2 35.5 65 -3.9 24.9
00:50 1013 29.91 842 24.86 1.4 34.6 68 -3.8 25.1
00:55 1013 29.91 842 24.86 0.6 33.1 70 -4.2 24.5
01:00 1013 29.91 842 24.86 0.5 32.9 69 -4.5 23.9
01:05 1013 29.91 842 24.86 0.7 33.2 70 -4.2 24.4
01:10 1013 29.91 842 24.86 0.9 33.5 67 -4.5 23.8
01:15 1013 29.91 842 24.86 1.1 33.9 67 -4.4 24.2
01:20 1013 29.91 842 24.86 1.3 34.4 66 -4.4 24.1
01:25 1013 29.91 842 24.86 1.2 34.2 66 -4.3 24.2
01:30 1013 29.91 842 24.86 1.4 34.5 66 -4.3 24.3
01:35 1013 29.91 842 24.86 1.8 35.2 65 -4.2 24.5
01:40 1013 29.91 842 24.86 1.7 35.1 65 -4.2 24.5
01:45 1013 29.91 842 24.86 1.8 35.3 64 -4.3 24.3
01:50 1013 29.91 842 24.86 1.7 35.1 64 -4.3 24.2
01:55 1013 29.91 842 24.86 1.7 35 65 -4.1 24.5
02:00 1013 29.91 842 24.86 1.3 34.4 68 -4 24.8
02:05 1013 29.91 842 24.86 1.2 34.1 67 -4.3 24.2
02:10 1013 29.91 842 24.86 1.1 34 69 -4 24.8
02:15 1013 29.91 842 24.86 0.6 33.1 70 -4.3 24.3
02:20 1013 29.91 842 24.86 0.7 33.3 68 -4.6 23.8
02:25 1013 29.91 842 24.86 1.1 34.1 67 -4.3 24.2
02:30 1013 29.91 842 24.86 1.3 34.4 67 -4.2 24.5
02:35 1013 29.91 842 24.86 1.1 34 68 -4.2 24.4
02:40 1013 29.91 842 24.86 1.2 34.2 66 -4.3 24.2
02:45 1013 29.91 842 24.86 1.4 34.6 66 -4.1 24.6
02:50 1013 29.91 842 24.86 1.3 34.4 67 -4.1 24.6
02:55 1013 29.91 842 24.86 1.2 34.2 67 -4.1 24.5
03:00 1013 29.91 842 24.86 1.1 34 68 -4.2 24.5
03:05 1013 29.91 842 24.86 1.2 34.2 67 -4.3 24.2
03:10 1013 29.91 842 24.86 1.5 34.7 66 -4.2 24.5
03:15 1013 29.91 842 24.86 1.6 34.8 66 -4.1 24.6
03:20 1013 29.91 842 24.86 1.5 34.7 65 -4.3 24.3
03:25 1013 29.91 842 24.86 1.2 34.2 66 -4.3 24.2
03:30 1013 29.91 842 24.86 1 33.9 67 -4.4 24.1
03:35 1013 29.91 842 24.86 1 33.8 67 -4.4 24
03:40 1013 29.91 842 24.86 1.1 33.9 67 -4.3 24.3
03:45 1013 29.91 842 24.86 1.1 33.9 68 -4.3 24.3
03:50 1013 29.91 842 24.86 1.1 34.1 68 -4.1 24.6
03:55 1013 29.91 842 24.86 1.2 34.2 68 -4 24.9
04:00 1013 29.91 842 24.86 1.2 34.2 69 -3.9 25
04:05 1013 29.91 842 24.86 1 33.8 69 -3.9 24.9
04:10 1013 29.91 842 24.86 0.9 33.5 70 -4 24.8
04:15 1013 29.91 842 24.86 1 33.7 69 -4 24.8
04:20 1013 29.91 842 24.86 1 33.8 69 -4 24.8
04:25 1013 29.91 842 24.86 0.9 33.7 69 -4 24.7
04:30 1013 29.91 842 24.86 0.8 33.4 70 -4 24.8
04:35 1013 29.91 842 24.86 0.5 32.9 72 -4 24.7
04:40 1013 29.91 842 24.86 0.4 32.7 72 -4.1 24.6
04:45 1013 29.91 842 24.86 0.4 32.7 72 -4.2 24.5
04:50 1013 29.91 842 24.86 0.6 33.1 70 -4.2 24.4
04:55 1013 29.91 842 24.86 0.9 33.6 69 -4.1 24.5
05:00 1013 29.91 842 24.86 0.7 33.2 69 -4.3 24.2
05:05 1013 29.91 842 24.86 0.7 33.3 71 -4 24.7
05:10 1013 29.91 842 24.86 0.4 32.7 71 -4.2 24.4
05:15 1013 29.91 842 24.86 0.7 33.2 70 -4.1 24.5
05:20 1013 29.91 842 24.86 0.8 33.4 70 -4.2 24.5
05:25 1013 29.91 842 24.86 0.6 33 71 -4.2 24.5
05:30 1013 29.91 842 24.86 0.4 32.7 71 -4.2 24.5
05:35 1013 29.91 842 24.86 0.3 32.6 71 -4.3 24.2
05:40 1013 29.91 842 24.86 0.3 32.5 71 -4.4 24.2
05:45 1013 29.91 842 24.86 0.1 32.2 72 -4.3 24.3
05:50 1013 29.91 842 24.86 -0.2 31.7 74 -4.2 24.4
05:55 1013 29.91 842 24.86 -0.5 31.1 75 -4.4 24.1
06:00 1013 29.91 842 24.86 -0.1 31.7 72 -4.5 23.8
06:05 1013 29.91 842 24.86 0 32 72 -4.5 23.9
06:10 1013 29.91 842 24.86 -0.1 31.9 72 -4.4 24
06:15 1013 29.91 842 24.86 0.5 32.9 70 -4.3 24.2
06:20 1013 29.91 842 24.86 0.5 33 70 -4.2 24.4
06:25 1013 29.91 842 24.86 0.2 32.4 72 -4.3 24.3
06:30 1013 29.91 842 24.86 0 32 73 -4.3 24.3
06:35 1013 29.91 842 24.86 0 32 72 -4.4 24.1
06:40 1013 29.91 842 24.86 -0.2 31.7 73 -4.4 24.1
06:45 1013 29.91 842 24.86 -0.2 31.6 74 -4.3 24.2
06:50 1013 29.91 842 24.86 -0.2 31.7 73 -4.4 24.2
06:55 1013 29.91 842 24.86 -0.2 31.7 73 -4.4 24.1
07:00 1013 29.91 842 24.86 -0.2 31.6 74 -4.4 24.1
07:05 1013 29.91 842 24.86 -0.3 31.4 74 -4.4 24.1
07:10 1013 29.91 842 24.86 -0.3 31.5 73 -4.5 23.9
07:15 1013 29.91 842 24.86 -0.3 31.4 74 -4.5 24
07:20 1013 29.91 842 24.86 -0.4 31.3 74 -4.4 24.1
07:25 1013 29.91 842 24.86 -0.5 31.2 75 -4.4 24.1
07:30 1013 29.91 842 24.86 -0.5 31.1 75 -4.4 24
07:35 1013 29.91 842 24.86 -0.5 31.1 75 -4.4 24.1
07:40 1013 29.91 842 24.86 -0.6 31 75 -4.5 23.9
07:45 1013 29.91 842 24.86 -0.6 31 75 -4.5 24
07:50 1013 29.91 842 24.86 -0.7 30.7 76 -4.5 23.9
07:55 1013 29.91 842 24.86 -0.9 30.4 77 -4.5 24
08:00 1013 29.91 842 24.86 -0.9 30.4 76 -4.6 23.8
08:05 1013 29.91 842 24.86 -0.9 30.4 76 -4.6 23.7
08:10 1013 29.91 842 24.86 -0.8 30.5 76 -4.6 23.8
08:15 1013 29.91 842 24.86 -0.7 30.8 75 -4.6 23.7
08:20 1013 29.91 842 24.86 -0.4 31.2 74 -4.5 23.8
08:25 1013 29.91 842 24.86 -0.3 31.5 73 -4.6 23.7
08:30 1013 29.91 842 24.86 0 32 71 -4.6 23.7
08:35 1013 29.91 842 24.86 -0 31.9 72 -4.4 24
08:40 1013 29.91 842 24.86 0.5 32.8 69 -4.6 23.8
08:45 1013 29.91 842 24.86 0.4 32.8 69 -4.5 23.9
08:50 1013 29.91 842 24.86 0.3 32.5 70 -4.5 24
08:55 1013 29.91 842 24.86 0.3 32.6 70 -4.6 23.8
09:00 1013 29.91 842 24.86 0.5 32.9 70 -4.4 24.1
09:05 1013 29.91 842 24.86 0.6 33.1 70 -4.3 24.2
09:10 1013 29.91 842 24.86 0.7 33.3 68 -4.6 23.8
09:15 1013 29.91 842 24.86 1.5 34.6 66 -4.1 24.5
09:20 1013 29.91 842 24.86 1 33.8 68 -4.2 24.4
09:25 1013 29.91 842 24.86 1.1 33.9 67 -4.5 23.9
09:30 1013 29.91 842 24.86 1.8 35.2 63 -4.5 23.8
09:35 1013 29.91 842 24.86 2.8 37 60 -4.1 24.6
09:40 1013 29.91 842 24.86 3.1 37.6 59 -4.2 24.4
09:45 1013 29.91 842 24.86 3.9 39 56 -4.2 24.5
09:50 1013 29.91 842 24.86 3.8 38.9 57 -3.8 25.1
09:55 1013 29.91 842 24.86 4.4 39.9 56 -3.7 25.3
10:00 1013 29.91 842 24.86 4.3 39.7 56 -3.7 25.3
10:05 1013 29.91 842 24.86 4.6 40.2 54 -3.9 25
10:10 1013 29.91 842 24.86 5 41.1 52 -3.9 25
10:15 1013 29.91 842 24.86 5.4 41.7 51 -4 24.9
10:20 1013 29.91 842 24.86 5.7 42.2 50 -3.9 25
10:25 1013 29.91 842 24.86 5.7 42.3 51 -3.7 25.4
10:30 1013 29.91 842 24.86 5.8 42.4 50 -3.7 25.3
10:35 1013 29.91 842 24.86 6.1 43 50 -3.4 25.8
10:40 1013 29.91 843 24.89 6.3 43.4 50 -3.3 26
10:45 1013 29.91 843 24.89 6.5 43.6 49 -3.4 25.9
10:50 1013 29.91 843 24.89 6.8 44.3 49 -3.2 26.2
10:55 1013 29.91 843 24.89 6.8 44.2 49 -3.2 26.2
11:00 1013 29.91 843 24.89 6.7 44.1 49 -3.1 26.4
11:05 1013 29.91 843 24.89 6.5 43.8 49 -3.3 26
11:10 1013 29.91 843 24.89 6.3 43.3 50 -3.4 25.9
11:15 1013 29.91 843 24.89 6.4 43.5 50 -3.4 26
11:20 1013 29.91 843 24.89 6.4 43.6 50 -3.3 26.1
11:25 1013 29.91 843 24.89 6.1 42.9 51 -3.4 25.9
11:30 1013 29.91 842 24.86 6.4 43.6 49 -3.4 25.9
11:35 1013 29.91 842 24.86 7 44.6 47 -3.4 25.9
11:40 1013 29.91 842 24.86 7.1 44.8 48 -3.1 26.4
11:45 1013 29.91 842 24.86 7 44.5 48 -3.3 26.1
11:50 1013 29.91 842 24.86 7.7 45.8 45 -3.4 25.9
11:55 1013 29.91 842 24.86 7.7 45.8 46 -3.1 26.4
12:00 1013 29.91 842 24.86 7.3 45.1 48 -2.9 26.8
12:05 1013 29.91 842 24.86 7.4 45.4 48 -2.9 26.8
12:10 1013 29.91 842 24.86 7.3 45.2 47 -3.3 26
12:15 1013 29.91 842 24.86 7.6 45.7 47 -3.1 26.5
12:20 1013 29.91 842 24.86 7.5 45.5 47 -3.1 26.5
12:25 1013 29.91 842 24.86 7.3 45.1 48 -2.9 26.9
12:30 1013 29.91 842 24.86 7.2 45 49 -2.8 27
12:35 1013 29.91 842 24.86 7.4 45.4 50 -2.2 28.1
12:40 1013 29.91 842 24.86 7.1 44.8 52 -2.2 28.1
12:45 1013 29.91 842 24.86 7 44.5 51 -2.5 27.5
12:50 1013 29.91 842 24.86 6.9 44.5 51 -2.5 27.5
12:55 1013 29.91 842 24.86 6.9 44.5 52 -2.3 27.9
13:00 1013 29.91 842 24.86 6.4 43.5 54 -2.2 28
13:05 1013 29.91 842 24.86 6.6 43.8 52 -2.5 27.4
13:10 1013 29.91 842 24.86 7 44.5 51 -2.4 27.8
13:15 1013 29.91 842 24.86 7.1 44.8 51 -2.2 28
13:20 1012 29.88 842 24.86 7.5 45.4 50 -2.3 27.8
13:25 1012 29.88 842 24.86 7.7 45.9 49 -2.3 27.9
13:30 1012 29.88 842 24.86 7.8 46 49 -2.2 28
13:35 1012 29.88 842 24.86 8.1 46.6 47 -2.5 27.6
13:40 1012 29.88 842 24.86 8.4 47.1 47 -2.4 27.8
13:45 1012 29.88 841 24.83 8.6 47.5 46 -2.4 27.8
13:50 1012 29.88 841 24.83 8.6 47.5 45 -2.7 27.2
13:55 1012 29.88 841 24.83 9 48.1 44 -2.6 27.4
14:00 1012 29.88 841 24.83 9.1 48.4 44 -2.5 27.5
14:05 1012 29.88 841 24.83 9.1 48.4 44 -2.6 27.4
14:10 1012 29.88 841 24.83 8.2 46.7 48 -2.1 28.3
14:15 1012 29.88 841 24.83 8.1 46.5 47 -2.5 27.5
14:20 1012 29.88 841 24.83 8.4 47.2 46 -2.6 27.3
14:25 1012 29.88 841 24.83 8.4 47.2 46 -2.5 27.5
14:30 1012 29.88 841 24.83 8.5 47.3 45 -2.8 26.9
14:35 1012 29.88 841 24.83 8.8 47.8 45 -2.4 27.6
14:40 1012 29.88 841 24.83 9.1 48.4 44 -2.5 27.4
14:45 1012 29.88 841 24.83 9 48.3 45 -2.3 27.9
14:50 1012 29.88 841 24.83 9.2 48.5 44 -2.5 27.4
14:55 1012 29.88 841 24.83 9.6 49.2 43 -2.3 27.8
15:00 1012 29.88 841 24.83 9.4 48.9 45 -1.9 28.5
15:05 1012 29.88 841 24.83 8.6 47.4 48 -1.7 28.9
15:10 1012 29.88 841 24.83 8.2 46.8 48 -2.1 28.2
15:15 1012 29.88 841 24.83 8.4 47.1 47 -2.3 27.8
15:20 1012 29.88 841 24.83 8.9 47.9 46 -2.1 28.3
15:25 1012 29.88 841 24.83 9 48.1 45 -2.4 27.6
15:30 1012 29.88 841 24.83 9 48.2 46 -2.1 28.2
15:35 1012 29.88 841 24.83 8.8 47.9 46 -2.2 28
15:40 1012 29.88 841 24.83 8.5 47.3 45 -2.6 27.3
15:45 1012 29.88 841 24.83 9 48.2 44 -2.6 27.3
15:50 1012 29.88 841 24.83 9 48.2 45 -2.2 28
15:55 1012 29.88 841 24.83 8.7 47.6 46 -2.3 27.8
16:00 1012 29.88 841 24.83 8.5 47.2 47 -2.3 27.9
16:05 1012 29.88 841 24.83 8.3 46.9 48 -2.2 28
16:10 1012 29.88 841 24.83 8.1 46.5 48 -2.3 27.9
16:15 1012 29.88 841 24.83 8 46.5 48 -2.2 28
16:20 1012 29.88 841 24.83 7.9 46.3 48 -2.3 27.9
16:25 1012 29.88 841 24.83 8 46.3 48 -2.4 27.6
16:30 1012 29.88 841 24.83 7.8 46.1 48 -2.4 27.8
16:35 1012 29.88 841 24.83 7.8 46 49 -2.3 27.8
16:40 1012 29.88 841 24.83 7.7 45.8 50 -2.1 28.1
16:45 1012 29.88 841 24.83 7.6 45.7 50 -2.1 28.2
16:50 1012 29.88 841 24.83 7.3 45.2 51 -2.1 28.2
16:55 1012 29.88 841 24.83 7 44.6 52 -2.1 28.3
17:00 1012 29.88 841 24.83 6.7 44 54 -2 28.4
17:05 1012 29.88 842 24.86 6.6 43.9 54 -1.9 28.5
17:10 1012 29.88 842 24.86 6.4 43.5 56 -1.7 28.9
17:15 1012 29.88 842 24.86 6.5 43.7 57 -1.5 29.4
17:20 1012 29.88 842 24.86 6.6 43.9 55 -1.8 28.7
17:25 1012 29.88 842 24.86 6.8 44.3 54 -1.7 28.9
17:30 1012 29.88 842 24.86 6.9 44.4 55 -1.6 29.2
17:35 1012 29.88 842 24.86 6.6 43.9 55 -1.8 28.8
17:40 1013 29.91 842 24.86 6.5 43.6 54 -2 28.3
17:45 1013 29.91 842 24.86 6.4 43.5 55 -2 28.5
17:50 1013 29.91 842 24.86 6.2 43.2 55 -2 28.3
17:55 1013 29.91 842 24.86 6.3 43.3 54 -2.3 27.8
18:00 1013 29.91 842 24.86 6.2 43.2 55 -2 28.4
18:05 1013 29.91 842 24.86 6 42.9 56 -2.1 28.2
18:10 1013 29.91 842 24.86 5.6 42.1 58 -2.1 28.2
18:15 1013 29.91 842 24.86 5.5 42 57 -2.3 27.8
18:20 1013 29.91 842 24.86 5.5 41.8 59 -1.9 28.6
18:25 1013 29.91 842 24.86 5.3 41.5 60 -1.8 28.7
18:30 1013 29.91 842 24.86 5.1 41.1 61 -1.9 28.6
18:35 1013 29.91 842 24.86 5.1 41.1 60 -2.1 28.2
18:40 1013 29.91 842 24.86 4.9 40.8 59 -2.4 27.7
18:45 1013 29.91 842 24.86 4.9 40.8 59 -2.5 27.5
18:50 1013 29.91 842 24.86 4.7 40.5 60 -2.4 27.7
18:55 1013 29.91 842 24.86 4.5 40.2 60 -2.5 27.4
19:00 1013 29.91 842 24.86 4.7 40.5 60 -2.4 27.7
19:05 1013 29.91 842 24.86 4.8 40.7 61 -2.1 28.2
19:10 1013 29.91 842 24.86 4.7 40.4 63 -1.8 28.8
19:15 1013 29.91 842 24.86 4.2 39.6 64 -2 28.3
19:20 1013 29.91 842 24.86 4.1 39.3 65 -2 28.5
19:25 1013 29.91 842 24.86 3.6 38.6 66 -2.2 28.1
19:30 1013 29.91 842 24.86 3.7 38.7 65 -2.3 27.9
19:35 1013 29.91 842 24.86 3.6 38.4 67 -2 28.5
19:40 1013 29.91 842 24.86 3.3 38 66 -2.3 27.8
19:45 1013 29.91 842 24.86 3.6 38.6 65 -2.4 27.8
19:50 1013 29.91 842 24.86 4 39.1 65 -2 28.4
19:55 1013 29.91 842 24.86 3.7 38.7 66 -2 28.4
20:00 1013 29.91 842 24.86 3.8 38.8 65 -2.2 28
20:05 1013 29.91 842 24.86 3.2 37.8 67 -2.3 27.9
20:10 1013 29.91 842 24.86 3.3 37.9 66 -2.4 27.6
20:15 1013 29.91 842 24.86 3.2 37.8 67 -2.4 27.7
20:20 1013 29.91 842 24.86 3.4 38.1 66 -2.3 27.8
20:25 1013 29.91 842 24.86 3.1 37.6 68 -2.1 28.1
20:30 1013 29.91 842 24.86 3 37.3 68 -2.3 27.9
20:35 1013 29.91 842 24.86 3.1 37.6 68 -2.2 28.1
20:40 1013 29.91 842 24.86 3.1 37.6 68 -2.2 28.1
20:45 1013 29.91 842 24.86 3.1 37.5 69 -2.1 28.2
20:50 1013 29.91 842 24.86 3.1 37.6 68 -2.1 28.1
20:55 1013 29.91 842 24.86 3 37.4 71 -1.9 28.7
21:00 1013 29.91 842 24.86 2.7 36.8 71 -2 28.3
21:05 1013 29.91 842 24.86 2.7 36.9 71 -2.1 28.3
21:10 1013 29.91 842 24.86 2.9 37.2 71 -1.8 28.7
21:15 1013 29.91 842 24.86 3 37.4 71 -1.8 28.7
21:20 1013 29.91 842 24.86 3.2 37.7 70 -1.8 28.8
21:25 1013 29.91 842 24.86 3.5 38.3 67 -2 28.3
21:30 1013 29.91 842 24.86 3.6 38.6 67 -1.9 28.6
21:35 1013 29.91 842 24.86 3.5 38.4 68 -1.8 28.8
21:40 1013 29.91 842 24.86 3.3 37.9 73 -1.1 30.1
21:45 1013 29.91 842 24.86 3.4 38.1 71 -1.3 29.6
21:50 1013 29.91 842 24.86 3.5 38.2 68 -1.9 28.6
21:55 1013 29.91 842 24.86 3.7 38.7 67 -1.9 28.6
22:00 1013 29.91 842 24.86 3.7 38.7 67 -1.7 28.9
22:05 1013 29.91 842 24.86 3.6 38.6 69 -1.6 29.2
22:10 1013 29.91 842 24.86 3.3 37.9 71 -1.6 29.2
22:15 1013 29.91 842 24.86 3.3 37.9 71 -1.4 29.5
22:20 1013 29.91 842 24.86 3.4 38.1 73 -1 30.2
22:25 1013 29.91 842 24.86 3.3 37.9 74 -1 30.2
22:30 1013 29.91 842 24.86 2.9 37.3 75 -1.1 30.1
22:35 1013 29.91 842 24.86 2.8 37 76 -1.1 30
22:40 1013 29.91 842 24.86 2.9 37.2 75 -1.1 30.1
22:45 1013 29.91 842 24.86 2.9 37.3 75 -1.1 30
22:50 1013 29.91 843 24.89 3 37.4 75 -1 30.3
22:55 1013 29.91 843 24.89 2.7 36.9 76 -1.1 30.1
23:00 1013 29.91 843 24.89 2.9 37.2 75 -1.2 29.9
23:05 1013 29.91 843 24.89 3 37.3 75 -1 30.2
23:10 1013 29.91 843 24.89 3 37.4 74 -1.2 29.9
23:15 1013 29.91 843 24.89 2.5 36.5 77 -1.1 30
23:20 1014 29.94 843 24.89 2.3 36.2 78 -1.1 30
23:25 1014 29.94 843 24.89 2.7 36.8 76 -1.2 29.9
23:30 1014 29.94 843 24.89 2.8 37 75 -1.1 29.9
23:35 1014 29.94 843 24.89 2.6 36.6 76 -1.3 29.7
23:40 1014 29.94 843 24.89 2.4 36.3 77 -1.2 29.8
23:45 1014 29.94 843 24.89 2.1 35.8 79 -1.2 29.8
23:50 1014 29.94 843 24.89 2 35.6 79 -1.3 29.7
23:55 1014 29.94 843 24.89 1.8 35.3 80 -1.2 29.9
24:00 1014 29.94 843 24.89 1.8 35.2 80 -1.3 29.7